Time;durP1;ratioP1;P1;durP2;ratioP2;P2;SDS_P1;SDS_P2;PMS_P1;PMS_P2;Temp;Humidity;BMP_temperature;BMP_pressure;BME280_temperature;BME280_humidity;BME280_pressure;Samples;Min_cycle;Max_cycle;Signal;HPM_P1;HPM_P2
2022/09/22 00:01:24;;;;;;;4.68;2.00;;;;;;;;;;4985359;28;20057;-83
2022/09/22 00:03:53;;;;;;;4.97;2.10;;;;;;;;;;4963330;28;20531;-84
2022/09/22 00:06:21;;;;;;;6.53;2.40;;;;;;;;;;4955963;28;20072;-84
2022/09/22 00:08:50;;;;;;;4.72;2.13;;;;;;;;;;4967931;28;20109;-83
2022/09/22 00:11:27;;;;;;;4.57;2.20;;;;;;;;;;4960500;28;20124;-83
2022/09/22 00:14:00;;;;;;;4.82;2.42;;;;;;;;;;4963389;28;20038;-84
2022/09/22 00:16:31;;;;;;;4.60;2.00;;;;;;;;;;4997434;28;20545;-84
2022/09/22 00:18:57;;;;;;;3.95;2.03;;;;;;;;;;4973320;28;20529;-84
2022/09/22 00:21:23;;;;;;;4.90;2.40;;;;;;;;;;4958161;28;20037;-84
2022/09/22 00:23:49;;;;;;;4.78;2.20;;;;;;;;;;4957058;28;20464;-84
2022/09/22 00:26:18;;;;;;;4.35;2.17;;;;;;;;;;4977409;28;20149;-85
2022/09/22 00:28:46;;;;;;;5.00;2.22;;;;;;;;;;4974727;28;20120;-84
2022/09/22 00:31:14;;;;;;;3.92;2.22;;;;;;;;;;4970458;28;20057;-85
2022/09/22 00:33:41;;;;;;;4.03;1.88;;;;;;;;;;4967379;28;20038;-84
2022/09/22 00:36:07;;;;;;;7.00;2.42;;;;;;;;;;4974341;28;20042;-84
2022/09/22 00:38:32;;;;;;;5.68;2.08;;;;;;;;;;4972857;28;20560;-85
2022/09/22 00:41:00;;;;;;;4.80;2.47;;;;;;;;;;4986647;28;20041;-85
2022/09/22 00:43:27;;;;;;;5.25;2.30;;;;;;;;;;4987498;28;20466;-85
2022/09/22 00:46:00;;;;;;;4.35;2.10;;;;;;;;;;4962297;28;20038;-84
2022/09/22 00:48:29;;;;;;;5.05;2.30;;;;;;;;;;4986176;28;20588;-85
2022/09/22 00:50:56;;;;;;;4.22;2.10;;;;;;;;;;4966750;28;20030;-86
2022/09/22 00:53:23;;;;;;;5.03;2.50;;;;;;;;;;4989458;28;20157;-84
2022/09/22 00:55:57;;;;;;;4.15;2.30;;;;;;;;;;4960277;28;20027;-84
2022/09/22 00:58:30;;;;;;;4.35;2.30;;;;;;;;;;4973929;28;20034;-84
2022/09/22 01:00:55;;;;;;;4.78;2.28;;;;;;;;;;4981916;28;20482;-85
2022/09/22 01:03:22;;;;;;;4.70;1.90;;;;;;;;;;4981974;28;20114;-84
2022/09/22 01:05:49;;;;;;;4.97;2.28;;;;;;;;;;4962161;28;20097;-85
2022/09/22 01:08:16;;;;;;;4.43;2.20;;;;;;;;;;4963457;28;20061;-84
2022/09/22 01:10:42;;;;;;;4.22;2.00;;;;;;;;;;4977780;28;20026;-83
2022/09/22 01:13:49;;;;;;;5.65;2.33;;;;;;;;;;4977993;28;20026;-84
2022/09/22 01:16:20;;;;;;;4.22;2.00;;;;;;;;;;4949177;28;20070;-84
2022/09/22 01:19:04;;;;;;;4.03;2.10;;;;;;;;;;4971487;28;20042;-84
2022/09/22 01:21:38;;;;;;;4.65;2.33;;;;;;;;;;4998712;28;20534;-84
2022/09/22 01:24:32;;;;;;;4.05;2.22;;;;;;;;;;4979809;28;20057;-84
2022/09/22 01:27:41;;;;;;;4.03;2.00;;;;;;;;;;5005411;28;20794;-83
2022/09/22 01:30:16;;;;;;;4.55;2.20;;;;;;;;;;4890419;29;20047;-83
2022/09/22 01:32:44;;;;;;;4.18;2.20;;;;;;;;;;4986019;28;20065;-84
2022/09/22 01:35:22;;;;;;;4.25;2.33;;;;;;;;;;4999547;28;20451;-84
2022/09/22 01:38:01;;;;;;;5.55;2.40;;;;;;;;;;4973604;28;20117;-84
2022/09/22 01:40:29;;;;;;;4.53;2.10;;;;;;;;;;4970126;28;20042;-84
2022/09/22 01:43:00;;;;;;;4.82;2.45;;;;;;;;;;4993940;28;20116;-84
2022/09/22 01:45:28;;;;;;;3.70;1.98;;;;;;;;;;4988681;28;20030;-83
2022/09/22 01:48:08;;;;;;;5.30;2.50;;;;;;;;;;4973457;28;20046;-84
2022/09/22 01:50:45;;;;;;;3.67;1.95;;;;;;;;;;4975991;28;20061;-84
2022/09/22 01:53:19;;;;;;;4.85;2.20;;;;;;;;;;4981567;28;20045;-85
2022/09/22 01:55:50;;;;;;;3.95;2.00;;;;;;;;;;4971121;28;20445;-85
2022/09/22 01:58:18;;;;;;;4.80;2.55;;;;;;;;;;4974675;28;20068;-83
2022/09/22 02:00:48;;;;;;;4.70;1.98;;;;;;;;;;4966938;28;20097;-85
2022/09/22 02:03:25;;;;;;;4.13;2.35;;;;;;;;;;4967747;28;20113;-84
2022/09/22 02:05:55;;;;;;;4.20;2.47;;;;;;;;;;4960431;28;20047;-85
2022/09/22 02:08:49;;;;;;;4.18;2.22;;;;;;;;;;4959854;28;20391;-84
2022/09/22 02:11:15;;;;;;;3.92;2.10;;;;;;;;;;4973961;28;20104;-84
2022/09/22 02:13:44;;;;;;;6.47;2.30;;;;;;;;;;4979302;28;20037;-85
2022/09/22 02:16:12;;;;;;;5.18;2.42;;;;;;;;;;4964822;28;20035;-85
2022/09/22 02:18:48;;;;;;;;;;;;;;;;;;4967856;28;20553;-84
2022/09/22 02:21:17;;;;;;;4.38;2.53;;;;;;;;;;4985721;28;19921;-84
2022/09/22 02:23:43;;;;;;;9.13;2.10;;;;;;;;;;4985241;28;20057;-84
2022/09/22 02:26:09;;;;;;;5.10;2.78;;;;;;;;;;4974789;28;20038;-85
2022/09/22 02:28:37;;;;;;;3.88;2.00;;;;;;;;;;4974808;28;20033;-84
2022/09/22 02:31:04;;;;;;;5.88;2.70;;;;;;;;;;4970064;28;20041;-84
2022/09/22 02:33:32;;;;;;;4.78;2.40;;;;;;;;;;4972764;28;20161;-84
2022/09/22 02:36:07;;;;;;;4.30;2.42;;;;;;;;;;4968472;28;21153;-84
2022/09/22 02:38:56;;;;;;;6.45;3.05;;;;;;;;;;4975091;28;20033;-84
2022/09/22 02:41:46;;;;;;;4.15;2.25;;;;;;;;;;4995857;28;20161;-84
2022/09/22 02:44:16;;;;;;;4.15;2.70;;;;;;;;;;4991244;28;20092;-84
2022/09/22 02:46:49;;;;;;;4.68;2.80;;;;;;;;;;5002936;28;20165;-84
2022/09/22 02:49:16;;;;;;;5.47;2.85;;;;;;;;;;4965934;28;20391;-84
2022/09/22 02:51:41;;;;;;;4.28;2.63;;;;;;;;;;4965713;28;20038;-85
2022/09/22 02:54:07;;;;;;;5.15;2.75;;;;;;;;;;4965976;28;20038;-82
2022/09/22 02:56:33;;;;;;;4.38;2.45;;;;;;;;;;4984397;28;20382;-81
2022/09/22 02:58:58;;;;;;;4.10;2.35;;;;;;;;;;4989722;28;20097;-81
2022/09/22 03:01:23;;;;;;;4.70;2.58;;;;;;;;;;4986812;28;20042;-82
2022/09/22 03:03:49;;;;;;;4.13;2.00;;;;;;;;;;4972584;28;20410;-82
2022/09/22 03:06:15;;;;;;;4.63;2.40;;;;;;;;;;4966637;28;20042;-81
2022/09/22 03:08:40;;;;;;;5.13;2.40;;;;;;;;;;4977440;28;20057;-81
2022/09/22 03:11:05;;;;;;;5.20;2.78;;;;;;;;;;4968683;28;20044;-81
2022/09/22 03:13:31;;;;;;;5.53;2.47;;;;;;;;;;4965738;28;20049;-82
2022/09/22 03:15:56;;;;;;;5.95;2.60;;;;;;;;;;4981236;28;20041;-82
2022/09/22 03:18:21;;;;;;;3.80;2.20;;;;;;;;;;4981915;28;20030;-81
2022/09/22 03:20:47;;;;;;;5.35;3.00;;;;;;;;;;4986269;28;20038;-81
2022/09/22 03:23:12;;;;;;;4.45;2.50;;;;;;;;;;4966760;28;20042;-80
2022/09/22 03:25:37;;;;;;;4.65;2.55;;;;;;;;;;4964288;28;20069;-82
2022/09/22 03:28:03;;;;;;;4.53;2.33;;;;;;;;;;4975048;28;20030;-81
2022/09/22 03:30:28;;;;;;;4.40;2.38;;;;;;;;;;4985582;28;20401;-82
2022/09/22 03:32:54;;;;;;;3.88;2.30;;;;;;;;;;4975456;28;20405;-80
2022/09/22 03:35:19;;;;;;;4.45;2.63;;;;;;;;;;4983510;28;20034;-81
2022/09/22 03:37:45;;;;;;;4.72;2.55;;;;;;;;;;4966417;28;20034;-82
2022/09/22 03:40:11;;;;;;;3.60;2.20;;;;;;;;;;4985860;28;20031;-82
2022/09/22 03:42:36;;;;;;;4.57;2.42;;;;;;;;;;4974159;28;20045;-82
2022/09/22 03:45:03;;;;;;;5.53;2.63;;;;;;;;;;4964605;28;20041;-81
2022/09/22 03:47:28;;;;;;;4.82;2.42;;;;;;;;;;4989843;28;20046;-81
2022/09/22 03:49:54;;;;;;;6.55;2.67;;;;;;;;;;4985416;28;20047;-81
2022/09/22 03:52:19;;;;;;;4.95;2.50;;;;;;;;;;4982126;28;20111;-81
2022/09/22 03:54:44;;;;;;;5.13;2.78;;;;;;;;;;4983399;28;20057;-81
2022/09/22 03:57:10;;;;;;;4.30;2.55;;;;;;;;;;4980426;28;20072;-81
2022/09/22 03:59:35;;;;;;;4.05;2.38;;;;;;;;;;4985207;28;20057;-81
2022/09/22 04:02:01;;;;;;;5.05;2.80;;;;;;;;;;4959427;28;20112;-81
2022/09/22 04:04:26;;;;;;;4.75;2.60;;;;;;;;;;4966998;28;20488;-81
2022/09/22 04:06:52;;;;;;;4.60;2.55;;;;;;;;;;4970396;28;20058;-80
2022/09/22 04:09:18;;;;;;;3.95;2.35;;;;;;;;;;4974005;28;20037;-81
2022/09/22 04:11:43;;;;;;;5.18;2.72;;;;;;;;;;4968988;28;20116;-81
2022/09/22 04:14:09;;;;;;;3.90;2.42;;;;;;;;;;4974886;28;20034;-80
2022/09/22 04:16:34;;;;;;;5.15;2.72;;;;;;;;;;4963568;28;20038;-81
2022/09/22 04:19:03;;;;;;;3.97;2.42;;;;;;;;;;4969422;28;20108;-81
2022/09/22 04:21:30;;;;;;;4.47;2.50;;;;;;;;;;4987186;28;20042;-80
2022/09/22 04:23:55;;;;;;;5.00;2.70;;;;;;;;;;4989088;28;20073;-80
2022/09/22 04:26:21;;;;;;;4.28;2.40;;;;;;;;;;4986649;28;20030;-81
2022/09/22 04:28:46;;;;;;;5.28;2.58;;;;;;;;;;4986657;28;20033;-81
2022/09/22 04:31:12;;;;;;;3.92;2.20;;;;;;;;;;4979360;28;20045;-82
2022/09/22 04:33:37;;;;;;;4.50;2.42;;;;;;;;;;4972452;28;20042;-81
2022/09/22 04:36:02;;;;;;;3.80;2.30;;;;;;;;;;4970679;28;20034;-81
2022/09/22 04:38:28;;;;;;;6.88;2.33;;;;;;;;;;4997301;28;20128;-81
2022/09/22 04:40:53;;;;;;;4.82;2.53;;;;;;;;;;4978462;28;20041;-81
2022/09/22 04:43:18;;;;;;;4.55;2.70;;;;;;;;;;4969486;28;20037;-82
2022/09/22 04:45:45;;;;;;;5.18;2.58;;;;;;;;;;4972494;28;20037;-82
2022/09/22 04:48:10;;;;;;;4.72;2.70;;;;;;;;;;4969088;28;20038;-81
2022/09/22 04:50:35;;;;;;;4.43;2.63;;;;;;;;;;4992317;28;20049;-81
2022/09/22 04:53:01;;;;;;;4.45;2.63;;;;;;;;;;4969667;28;20034;-81
2022/09/22 04:55:27;;;;;;;4.20;2.67;;;;;;;;;;4981295;28;20137;-81
2022/09/22 04:57:54;;;;;;;5.88;3.10;;;;;;;;;;4967549;28;20446;-81
2022/09/22 05:00:22;;;;;;;6.22;3.00;;;;;;;;;;4976812;28;20183;-81
2022/09/22 05:02:47;;;;;;;4.82;2.67;;;;;;;;;;4961910;28;20482;-81
2022/09/22 05:05:13;;;;;;;4.93;2.85;;;;;;;;;;4976383;28;20042;-80
2022/09/22 05:07:43;;;;;;;5.38;2.80;;;;;;;;;;4971750;28;20037;-81
2022/09/22 05:10:10;;;;;;;5.18;2.50;;;;;;;;;;4984612;28;20035;-80
2022/09/22 05:12:40;;;;;;;4.70;2.63;;;;;;;;;;5001603;28;20030;-81
2022/09/22 05:15:07;;;;;;;4.88;2.60;;;;;;;;;;4988705;28;20201;-81
2022/09/22 05:17:34;;;;;;;4.83;2.70;;;;;;;;;;4967825;28;20084;-81
2022/09/22 05:20:00;;;;;;;5.65;2.47;;;;;;;;;;4965873;28;20524;-81
2022/09/22 05:22:25;;;;;;;5.53;2.70;;;;;;;;;;4967199;28;20042;-81
2022/09/22 05:24:51;;;;;;;4.82;2.80;;;;;;;;;;4982933;28;20128;-80
2022/09/22 05:27:17;;;;;;;4.97;2.95;;;;;;;;;;4996784;28;20033;-80
2022/09/22 05:29:43;;;;;;;5.80;3.10;;;;;;;;;;4986067;28;20516;-80
2022/09/22 05:32:08;;;;;;;5.43;2.78;;;;;;;;;;4961370;28;20033;-81
2022/09/22 05:34:33;;;;;;;5.22;3.13;;;;;;;;;;4985183;28;20053;-81
2022/09/22 05:36:59;;;;;;;6.55;2.85;;;;;;;;;;4972348;28;20525;-81
2022/09/22 05:39:24;;;;;;;5.00;2.90;;;;;;;;;;4968703;28;20084;-80
2022/09/22 05:41:49;;;;;;;4.20;2.55;;;;;;;;;;4985878;28;20038;-81
2022/09/22 05:44:15;;;;;;;5.03;2.90;;;;;;;;;;4958606;28;20422;-81
2022/09/22 05:46:41;;;;;;;6.43;2.83;;;;;;;;;;4961749;28;20053;-81
2022/09/22 05:49:06;;;;;;;4.93;2.47;;;;;;;;;;4965214;28;20401;-82
2022/09/22 05:51:31;;;;;;;4.78;2.55;;;;;;;;;;4961367;28;20031;-82
2022/09/22 05:53:57;;;;;;;5.68;3.17;;;;;;;;;;4964874;28;20061;-82
2022/09/22 05:56:22;;;;;;;5.28;2.90;;;;;;;;;;4976605;28;20128;-81
2022/09/22 05:58:47;;;;;;;5.72;2.95;;;;;;;;;;4979124;28;20393;-82
2022/09/22 06:01:13;;;;;;;6.80;2.83;;;;;;;;;;4961056;28;20400;-82
2022/09/22 06:03:38;;;;;;;6.28;3.20;;;;;;;;;;4985971;28;20740;-81
2022/09/22 06:06:04;;;;;;;5.32;2.92;;;;;;;;;;4963694;28;20046;-81
2022/09/22 06:08:29;;;;;;;4.50;2.85;;;;;;;;;;4955966;28;20493;-81
2022/09/22 06:10:58;;;;;;;7.88;3.10;;;;;;;;;;4968751;28;20035;-83
2022/09/22 06:13:24;;;;;;;5.05;2.75;;;;;;;;;;4955049;28;20037;-83
2022/09/22 06:15:52;;;;;;;5.60;2.95;;;;;;;;;;4968021;28;20038;-83
2022/09/22 06:18:17;;;;;;;5.35;3.20;;;;;;;;;;4971301;28;20038;-84
2022/09/22 06:20:43;;;;;;;5.13;3.05;;;;;;;;;;4970559;28;20045;-84
2022/09/22 06:23:11;;;;;;;5.78;3.40;;;;;;;;;;4957362;28;20035;-83
2022/09/22 06:25:36;;;;;;;;;;;;;;;;;;4971077;28;20037;-84
2022/09/22 06:28:04;;;;;;;6.53;3.47;;;;;;;;;;4959493;28;19917;-83
2022/09/22 06:30:34;;;;;;;5.30;3.30;;;;;;;;;;4964065;28;20339;-83
2022/09/22 06:33:01;;;;;;;6.20;3.72;;;;;;;;;;4955856;28;20019;-83
2022/09/22 06:35:35;;;;;;;6.43;3.70;;;;;;;;;;4954747;28;20109;-83
2022/09/22 06:38:01;;;;;;;5.78;3.38;;;;;;;;;;4956143;28;20027;-83
2022/09/22 06:40:26;;;;;;;5.85;3.53;;;;;;;;;;4952942;28;20047;-83
2022/09/22 06:42:58;;;;;;;6.15;3.25;;;;;;;;;;4954387;28;20034;-83
2022/09/22 06:45:28;;;;;;;5.22;3.17;;;;;;;;;;4954708;28;20045;-80
2022/09/22 06:47:57;;;;;;;6.40;3.00;;;;;;;;;;4955117;28;20049;-80
2022/09/22 06:50:24;;;;;;;6.35;3.22;;;;;;;;;;4954985;28;20034;-80
2022/09/22 06:52:50;;;;;;;5.20;2.70;;;;;;;;;;4959116;28;20038;-80
2022/09/22 06:55:18;;;;;;;3.83;2.30;;;;;;;;;;4954041;28;20383;-80
2022/09/22 06:57:43;;;;;;;5.10;2.10;;;;;;;;;;4969905;28;20544;-80
2022/09/22 07:00:09;;;;;;;3.35;1.75;;;;;;;;;;4986912;28;20039;-80
2022/09/22 07:02:35;;;;;;;4.13;1.85;;;;;;;;;;4968555;28;20540;-81
2022/09/22 07:05:01;;;;;;;3.40;1.50;;;;;;;;;;4970905;28;20054;-80
2022/09/22 07:07:27;;;;;;;3.63;1.92;;;;;;;;;;4954111;28;20115;-80
2022/09/22 07:09:53;;;;;;;4.07;2.22;;;;;;;;;;4958008;28;20046;-80
2022/09/22 07:12:21;;;;;;;3.63;2.00;;;;;;;;;;4967568;28;20030;-80
2022/09/22 07:14:48;;;;;;;3.90;1.48;;;;;;;;;;4954519;28;20117;-80
2022/09/22 07:17:15;;;;;;;3.75;1.65;;;;;;;;;;4954562;28;20046;-80
2022/09/22 07:19:40;;;;;;;3.77;1.80;;;;;;;;;;4952971;28;20414;-81
2022/09/22 07:22:09;;;;;;;4.43;1.80;;;;;;;;;;4946908;28;20042;-81
2022/09/22 07:24:34;;;;;;;3.67;1.75;;;;;;;;;;4961595;28;20030;-81
2022/09/22 07:27:05;;;;;;;3.13;1.48;;;;;;;;;;4967388;28;20041;-81
2022/09/22 07:29:32;;;;;;;3.03;1.42;;;;;;;;;;4970949;28;20030;-81
2022/09/22 07:31:58;;;;;;;4.25;1.77;;;;;;;;;;4954914;28;20974;-81
2022/09/22 07:34:25;;;;;;;3.58;1.40;;;;;;;;;;4971221;28;20109;-80
2022/09/22 07:36:50;;;;;;;3.55;1.20;;;;;;;;;;4954293;28;20126;-81
2022/09/22 07:39:15;;;;;;;3.35;1.52;;;;;;;;;;4956670;28;20637;-81
2022/09/22 07:41:41;;;;;;;3.55;1.50;;;;;;;;;;4953901;28;20121;-80
2022/09/22 07:46:52;;;;;;;2.85;1.20;;;;;;;;;;4968076;28;20045;-81
2022/09/22 07:49:20;;;;;;;3.35;1.40;;;;;;;;;;4954880;28;20034;-80
2022/09/22 07:51:45;;;;;;;3.00;1.17;;;;;;;;;;4951886;28;20493;-81
2022/09/22 07:54:11;;;;;;;3.22;1.00;;;;;;;;;;4956977;28;20093;-79
2022/09/22 07:56:46;;;;;;;2.63;1.02;;;;;;;;;;4955553;28;20040;-82
2022/09/22 07:59:15;;;;;;;2.45;0.95;;;;;;;;;;4955299;28;20120;-81
2022/09/22 08:01:46;;;;;;;3.08;1.02;;;;;;;;;;4954089;28;20031;-81
2022/09/22 08:04:15;;;;;;;2.85;0.80;;;;;;;;;;4945844;28;20385;-81
2022/09/22 08:06:42;;;;;;;2.58;1.10;;;;;;;;;;4968840;28;20480;-81
2022/09/22 08:09:08;;;;;;;2.63;0.90;;;;;;;;;;4987493;28;20094;-80
2022/09/22 08:11:37;;;;;;;3.03;0.80;;;;;;;;;;4987716;28;20037;-80
2022/09/22 08:14:09;;;;;;;3.45;1.13;;;;;;;;;;4978323;28;20064;-82
2022/09/22 08:16:38;;;;;;;2.13;0.85;;;;;;;;;;4986880;28;20485;-81
2022/09/22 08:19:12;;;;;;;3.60;1.20;;;;;;;;;;4990521;28;20036;-83
2022/09/22 08:21:42;;;;;;;1.95;0.82;;;;;;;;;;4975391;28;20400;-82
2022/09/22 08:24:09;;;;;;;2.38;0.88;;;;;;;;;;4979718;28;20058;-82
2022/09/22 08:26:36;;;;;;;3.58;1.00;;;;;;;;;;4972585;28;20040;-82
2022/09/22 08:29:03;;;;;;;2.30;1.17;;;;;;;;;;4973396;28;20521;-82
2022/09/22 08:31:33;;;;;;;1.33;0.40;;;;;;;;;;4975384;28;20061;-81
2022/09/22 08:33:58;;;;;;;2.40;0.82;;;;;;;;;;4961351;28;20041;-81
2022/09/22 08:36:26;;;;;;;1.35;0.50;;;;;;;;;;4970598;28;20034;-81
2022/09/22 08:38:55;;;;;;;1.73;0.35;;;;;;;;;;4987485;28;20025;-83
2022/09/22 08:41:28;;;;;;;2.20;0.63;;;;;;;;;;4969396;28;20045;-80
2022/09/22 08:43:57;;;;;;;1.17;0.52;;;;;;;;;;5000166;28;20041;-80
2022/09/22 08:46:32;;;;;;;1.13;0.50;;;;;;;;;;4972813;28;20061;-80
2022/09/22 08:51:52;;;;;;;1.38;0.40;;;;;;;;;;4978439;28;20099;-81
2022/09/22 08:54:19;;;;;;;1.20;0.40;;;;;;;;;;4987642;28;20037;-80
2022/09/22 08:56:53;;;;;;;1.17;0.40;;;;;;;;;;4965537;28;20565;-81
2022/09/22 08:59:32;;;;;;;1.50;0.40;;;;;;;;;;4990870;28;20082;-81
2022/09/22 09:02:03;;;;;;;1.30;0.40;;;;;;;;;;4986883;28;20046;-81
2022/09/22 09:04:46;;;;;;;1.75;0.40;;;;;;;;;;4971777;28;20041;-80
2022/09/22 09:07:59;;;;;;;1.10;0.38;;;;;;;;;;4992456;28;20436;-81
2022/09/22 09:10:36;;;;;;;0.95;0.40;;;;;;;;;;4930905;28;20044;-79
2022/09/22 09:13:09;;;;;;;1.80;0.50;;;;;;;;;;5004592;28;20057;-79
2022/09/22 09:15:45;;;;;;;1.27;0.47;;;;;;;;;;4971162;28;20041;-81
2022/09/22 09:18:19;;;;;;;1.98;0.50;;;;;;;;;;4988524;28;20045;-85
2022/09/22 09:20:50;;;;;;;0.93;0.30;;;;;;;;;;4941747;28;20035;-85
2022/09/22 09:23:33;;;;;;;0.50;0.20;;;;;;;;;;4950173;28;20075;-85
2022/09/22 09:26:00;;;;;;;1.08;0.28;;;;;;;;;;4986300;28;20103;-86
2022/09/22 09:28:31;;;;;;;1.38;0.30;;;;;;;;;;4971358;28;20030;-86
2022/09/22 09:31:17;;;;;;;1.65;0.20;;;;;;;;;;4970395;28;20080;-86
2022/09/22 09:34:01;;;;;;;1.13;0.30;;;;;;;;;;4984423;28;20498;-85
2022/09/22 09:36:33;;;;;;;0.20;0.10;;;;;;;;;;4987508;28;20453;-85
2022/09/22 09:39:07;;;;;;;1.25;0.20;;;;;;;;;;4970101;28;20038;-86
2022/09/22 09:41:35;;;;;;;0.95;0.30;;;;;;;;;;4973745;28;20042;-85
2022/09/22 09:44:01;;;;;;;0.45;0.13;;;;;;;;;;4974570;28;20103;-86
2022/09/22 09:46:41;;;;;;;1.23;0.20;;;;;;;;;;4991922;28;20121;-85
2022/09/22 09:49:13;;;;;;;2.03;0.40;;;;;;;;;;4991971;28;20037;-86
2022/09/22 09:51:43;;;;;;;0.90;0.30;;;;;;;;;;4990620;28;20038;-86
2022/09/22 09:54:11;;;;;;;1.10;0.32;;;;;;;;;;4984188;28;20493;-85
2022/09/22 09:57:02;;;;;;;1.63;0.40;;;;;;;;;;4963203;28;20172;-84
2022/09/22 10:02:20;;;;;;;1.30;0.40;;;;;;;;;;4984130;28;20049;-85
2022/09/22 10:05:15;;;;;;;1.65;0.30;;;;;;;;;;4978056;28;20042;-85
2022/09/22 10:07:45;;;;;;;0.50;0.22;;;;;;;;;;5006649;28;20049;-85
2022/09/22 10:10:31;;;;;;;1.55;0.40;;;;;;;;;;4990097;28;20507;-80
2022/09/22 10:12:59;;;;;;;1.90;0.50;;;;;;;;;;4973936;28;20093;-80
2022/09/22 10:15:25;;;;;;;1.40;0.45;;;;;;;;;;4992457;28;20515;-80
2022/09/22 10:17:51;;;;;;;1.13;0.40;;;;;;;;;;4980824;28;20136;-80
2022/09/22 10:20:25;;;;;;;0.85;0.30;;;;;;;;;;4986463;28;20485;-80
2022/09/22 10:22:51;;;;;;;0.57;0.17;;;;;;;;;;4991283;28;20049;-81
2022/09/22 10:25:30;;;;;;;0.77;0.30;;;;;;;;;;4989830;28;20042;-78
2022/09/22 10:27:58;;;;;;;0.57;0.22;;;;;;;;;;4992754;28;20134;-79
2022/09/22 10:30:28;;;;;;;0.60;0.20;;;;;;;;;;5007242;28;20516;-79
2022/09/22 10:33:11;;;;;;;0.95;0.30;;;;;;;;;;4974088;28;20135;-78
2022/09/22 10:35:38;;;;;;;0.77;0.40;;;;;;;;;;4989033;28;20038;-78
2022/09/22 10:38:20;;;;;;;0.93;0.35;;;;;;;;;;4986209;28;20035;-79
2022/09/22 10:40:49;;;;;;;1.05;0.32;;;;;;;;;;4987319;28;20034;-79
2022/09/22 10:43:41;;;;;;;0.73;0.30;;;;;;;;;;4990744;28;20124;-80
2022/09/22 10:46:19;;;;;;;1.60;0.45;;;;;;;;;;4983716;28;20461;-80
2022/09/22 10:49:08;;;;;;;0.95;0.30;;;;;;;;;;4974096;28;20441;-80
2022/09/22 10:51:53;;;;;;;1.08;0.30;;;;;;;;;;4985916;28;20029;-80
2022/09/22 10:54:52;;;;;;;1.00;0.22;;;;;;;;;;4984419;28;20038;-80
2022/09/22 10:57:59;;;;;;;1.38;0.35;;;;;;;;;;4988147;28;20034;-80
2022/09/22 11:00:25;;;;;;;;;;;;;;;;;;4977282;28;20559;-80
2022/09/22 11:03:44;;;;;;;0.77;0.40;;;;;;;;;;4980674;28;20000;-82
2022/09/22 11:12:17;;;;;;;1.20;0.40;;;;;;;;;;4983466;28;20044;-80
2022/09/22 11:14:52;;;;;;;6.63;1.80;;;;;;;;;;4991832;28;20032;-80
2022/09/22 11:17:27;;;;;;;2.20;0.90;;;;;;;;;;4978398;28;20057;-80
2022/09/22 11:20:04;;;;;;;7.75;2.47;;;;;;;;;;4989574;28;20598;-79
2022/09/22 11:22:39;;;;;;;1.60;0.47;;;;;;;;;;4975682;28;20057;-80
2022/09/22 11:25:36;;;;;;;1.27;0.38;;;;;;;;;;4983010;28;20049;-80
2022/09/22 11:28:20;;;;;;;2.00;0.40;;;;;;;;;;4979894;28;20038;-81
2022/09/22 11:30:52;;;;;;;1.83;0.43;;;;;;;;;;5003436;28;20497;-82
2022/09/22 11:33:42;;;;;;;1.48;0.45;;;;;;;;;;4989132;28;20042;-81
2022/09/22 11:36:24;;;;;;;1.90;0.57;;;;;;;;;;5003480;28;20503;-81
2022/09/22 11:39:06;;;;;;;2.80;0.80;;;;;;;;;;5006126;28;20379;-80
2022/09/22 11:41:47;;;;;;;1.60;0.40;;;;;;;;;;4972634;28;20034;-80
2022/09/22 11:44:28;;;;;;;0.82;0.40;;;;;;;;;;4990440;28;20035;-81
2022/09/22 11:47:14;;;;;;;0.65;0.30;;;;;;;;;;4987955;28;20041;-80
2022/09/22 11:49:53;;;;;;;1.50;0.40;;;;;;;;;;4994491;28;20125;-79
2022/09/22 11:52:47;;;;;;;2.13;0.50;;;;;;;;;;5003029;28;20080;-80
2022/09/22 11:55:24;;;;;;;1.20;0.47;;;;;;;;;;4987983;28;20033;-79
2022/09/22 11:57:56;;;;;;;0.55;0.20;;;;;;;;;;4993733;28;20048;-79
2022/09/22 12:00:21;;;;;;;1.58;0.50;;;;;;;;;;4982400;28;20176;-80
2022/09/22 12:02:56;;;;;;;0.65;0.30;;;;;;;;;;4987464;28;20155;-80
2022/09/22 12:05:51;;;;;;;1.02;0.40;;;;;;;;;;4984766;28;20041;-81
2022/09/22 12:08:22;;;;;;;1.90;0.40;;;;;;;;;;4999912;28;20081;-80
2022/09/22 12:10:49;;;;;;;1.30;0.40;;;;;;;;;;4990444;28;20030;-80
2022/09/22 12:13:19;;;;;;;1.48;0.40;;;;;;;;;;4980869;28;20121;-80
2022/09/22 12:16:05;;;;;;;0.65;0.22;;;;;;;;;;4991194;28;20034;-79
2022/09/22 12:18:55;;;;;;;0.90;0.38;;;;;;;;;;5004956;28;20045;-80
2022/09/22 12:21:39;;;;;;;1.67;0.40;;;;;;;;;;4972131;28;20330;-80
2022/09/22 12:24:09;;;;;;;0.90;0.32;;;;;;;;;;5002816;28;20502;-80
2022/09/22 12:26:39;;;;;;;0.55;0.30;;;;;;;;;;4987368;28;20158;-81
2022/09/22 12:29:14;;;;;;;1.20;0.25;;;;;;;;;;4997543;28;20140;-80
2022/09/22 12:31:41;;;;;;;0.52;0.30;;;;;;;;;;5002543;28;20034;-82
2022/09/22 12:34:17;;;;;;;1.77;0.55;;;;;;;;;;4962878;28;20516;-81
2022/09/22 12:36:42;;;;;;;1.45;0.50;;;;;;;;;;5003533;28;20034;-84
2022/09/22 12:39:21;;;;;;;2.13;0.80;;;;;;;;;;4970727;28;20084;-83
2022/09/22 12:41:48;;;;;;;0.57;0.30;;;;;;;;;;4949301;28;20049;-83
2022/09/22 12:44:22;;;;;;;2.20;0.40;;;;;;;;;;4984692;28;20438;-84
2022/09/22 12:46:49;;;;;;;1.13;0.40;;;;;;;;;;4970228;28;20088;-84
2022/09/22 12:49:19;;;;;;;1.10;0.40;;;;;;;;;;4975472;28;20034;-84
2022/09/22 12:51:44;;;;;;;0.60;0.30;;;;;;;;;;4979092;28;20030;-85
2022/09/22 12:54:36;;;;;;;0.75;0.30;;;;;;;;;;4980107;28;20041;-82
2022/09/22 12:57:08;;;;;;;1.27;0.30;;;;;;;;;;4973491;28;20128;-84
2022/09/22 12:59:39;;;;;;;1.17;0.40;;;;;;;;;;4985852;28;20494;-85
2022/09/22 13:02:10;;;;;;;1.85;0.57;;;;;;;;;;5000139;28;20108;-83
2022/09/22 13:04:36;;;;;;;1.50;0.30;;;;;;;;;;4986065;28;20118;-85
2022/09/22 13:07:01;;;;;;;0.80;0.30;;;;;;;;;;4981066;28;20117;-84
2022/09/22 13:09:29;;;;;;;1.02;0.35;;;;;;;;;;4989036;28;20049;-83
2022/09/22 13:12:13;;;;;;;1.10;0.40;;;;;;;;;;4977254;28;20036;-84
2022/09/22 13:14:57;;;;;;;2.22;0.45;;;;;;;;;;5002207;28;20046;-84
2022/09/22 13:17:40;;;;;;;1.42;0.40;;;;;;;;;;5003585;28;20042;-83
2022/09/22 13:20:17;;;;;;;1.02;0.40;;;;;;;;;;4991788;28;20041;-86
2022/09/22 13:22:44;;;;;;;1.15;0.45;;;;;;;;;;4989641;28;20068;-85
2022/09/22 13:25:24;;;;;;;2.47;0.50;;;;;;;;;;4987448;28;20037;-86
2022/09/22 13:28:08;;;;;;;2.20;0.50;;;;;;;;;;4981390;28;20038;-85
2022/09/22 13:30:34;;;;;;;1.75;0.40;;;;;;;;;;5005655;28;20042;-83
2022/09/22 13:33:00;;;;;;;0.80;0.30;;;;;;;;;;4970209;28;20057;-84
2022/09/22 13:35:36;;;;;;;1.17;0.38;;;;;;;;;;4987016;28;20076;-84
2022/09/22 13:38:02;;;;;;;2.17;0.40;;;;;;;;;;4972729;28;20133;-85
2022/09/22 13:40:30;;;;;;;1.40;0.40;;;;;;;;;;4966344;28;20097;-86
2022/09/22 13:43:01;;;;;;;1.75;0.40;;;;;;;;;;4990846;28;20413;-86
2022/09/22 13:45:29;;;;;;;0.95;0.40;;;;;;;;;;4989649;28;20485;-85
2022/09/22 13:48:00;;;;;;;1.65;0.40;;;;;;;;;;4976243;28;20517;-86
2022/09/22 13:50:25;;;;;;;1.08;0.40;;;;;;;;;;4989176;28;20069;-87
2022/09/22 13:52:51;;;;;;;1.83;0.50;;;;;;;;;;4970849;28;20505;-85
2022/09/22 13:55:24;;;;;;;0.98;0.40;;;;;;;;;;4974121;28;20038;-85
2022/09/22 13:57:50;;;;;;;1.50;0.40;;;;;;;;;;4988596;28;20547;-85
2022/09/22 14:00:23;;;;;;;1.52;0.50;;;;;;;;;;4973540;28;20175;-86
2022/09/22 14:02:49;;;;;;;0.77;0.38;;;;;;;;;;4977950;28;20076;-84
2022/09/22 14:05:18;;;;;;;1.80;0.50;;;;;;;;;;4980173;28;20449;-85
2022/09/22 14:07:43;;;;;;;0.90;0.40;;;;;;;;;;4973121;28;20468;-85
2022/09/22 14:10:14;;;;;;;1.50;0.50;;;;;;;;;;4974370;28;20048;-84
2022/09/22 14:12:39;;;;;;;1.48;0.50;;;;;;;;;;4975204;28;20030;-84
2022/09/22 14:15:40;;;;;;;1.60;0.50;;;;;;;;;;4972206;28;20096;-84
2022/09/22 14:18:23;;;;;;;2.05;0.60;;;;;;;;;;4970515;28;20564;-84
2022/09/22 14:20:51;;;;;;;2.92;0.63;;;;;;;;;;4972874;28;20493;-84
2022/09/22 14:23:26;;;;;;;3.75;0.88;;;;;;;;;;4975686;28;20038;-83
2022/09/22 14:25:54;;;;;;;2.10;0.70;;;;;;;;;;4949205;28;20116;-83
2022/09/22 14:28:23;;;;;;;1.70;0.60;;;;;;;;;;4982336;28;20591;-81
2022/09/22 14:30:49;;;;;;;2.63;0.70;;;;;;;;;;4971677;28;20037;-82
2022/09/22 14:33:21;;;;;;;2.08;0.70;;;;;;;;;;4974571;28;20257;-82
2022/09/22 14:35:48;;;;;;;2.97;0.98;;;;;;;;;;4963480;28;20088;-81
2022/09/22 14:38:18;;;;;;;2.30;0.80;;;;;;;;;;4988770;28;20042;-83
2022/09/22 14:40:52;;;;;;;1.98;0.80;;;;;;;;;;4976073;28;20490;-83
2022/09/22 14:43:41;;;;;;;2.22;0.82;;;;;;;;;;4967768;28;20502;-83
2022/09/22 14:46:32;;;;;;;2.35;0.80;;;;;;;;;;4971957;28;20523;-84
2022/09/22 14:49:03;;;;;;;2.88;0.82;;;;;;;;;;4980834;28;20263;-85
2022/09/22 14:51:28;;;;;;;1.70;0.68;;;;;;;;;;4991432;28;20089;-84
2022/09/22 14:54:04;;;;;;;1.83;0.60;;;;;;;;;;4981793;28;20485;-84
2022/09/22 14:56:32;;;;;;;1.70;0.70;;;;;;;;;;4984935;28;20048;-85
2022/09/22 15:02:30;;;;;;;1.67;0.50;;;;;;;;;;4992150;28;20528;-84
2022/09/22 15:04:42;;;;;;;2.13;0.70;;;;;;;;;;4991198;28;20084;-83
2022/09/22 15:07:28;;;;;;;1.88;0.70;;;;;;;;;;4969747;28;20039;-83
2022/09/22 15:09:55;;;;;;;2.90;0.80;;;;;;;;;;4985871;28;20461;-83
2022/09/22 15:12:36;;;;;;;3.20;0.80;;;;;;;;;;4954513;28;20035;-82
2022/09/22 15:15:03;;;;;;;2.10;0.70;;;;;;;;;;4987965;28;20037;-82
2022/09/22 15:18:18;;;;;;;1.98;0.70;;;;;;;;;;4981351;28;20169;-83
2022/09/22 15:21:09;;;;;;;1.70;0.52;;;;;;;;;;4967410;28;20042;-83
2022/09/22 15:23:43;;;;;;;1.55;0.60;;;;;;;;;;4974626;28;20035;-80
2022/09/22 15:26:14;;;;;;;2.70;1.13;;;;;;;;;;4968104;28;20509;-79